Time;durP1;ratioP1;P1;durP2;ratioP2;P2;SDS_P1;SDS_P2;PMS_P1;PMS_P2;Temp;Humidity;BMP_temperature;BMP_pressure;BME280_temperature;BME280_humidity;BME280_pressure;Samples;Min_cycle;Max_cycle;Signal;HPM_P1;HPM_P2
2022/01/31 00:01:35;;;;;;;20.02;3.22;;;6.30;99.90;;;;;;4702289;30;20108;-90
2022/01/31 00:04:02;;;;;;;22.90;4.22;;;6.30;99.90;;;;;;4717456;30;20053;-90
2022/01/31 00:06:29;;;;;;;12.93;2.42;;;6.30;99.90;;;;;;4716359;30;20061;-91
2022/01/31 00:08:56;;;;;;;23.80;3.33;;;6.30;99.90;;;;;;4715923;30;20068;-90
2022/01/31 00:11:23;;;;;;;10.60;3.03;;;6.20;99.90;;;;;;4716144;30;20049;-92
2022/01/31 00:14:00;;;;;;;10.80;1.95;;;6.20;99.90;;;;;;4702032;30;20420;-91
2022/01/31 00:16:32;;;;;;;13.70;2.72;;;6.20;99.90;;;;;;4716286;30;20452;-90
2022/01/31 00:18:59;;;;;;;13.43;2.20;;;6.10;99.90;;;;;;4715881;30;20526;-91
2022/01/31 00:21:28;;;;;;;7.28;1.85;;;6.10;99.90;;;;;;4716236;30;20053;-92
2022/01/31 00:23:55;;;;;;;14.05;2.90;;;6.00;99.90;;;;;;4715977;30;20056;-92
2022/01/31 00:26:22;;;;;;;13.00;2.63;;;6.10;99.90;;;;;;4716298;30;20053;-92
2022/01/31 00:28:49;;;;;;;23.50;3.45;;;6.10;99.90;;;;;;4701830;30;20136;-93
2022/01/31 00:31:16;;;;;;;15.98;1.88;;;6.10;99.90;;;;;;4716185;30;20057;-91
2022/01/31 00:33:44;;;;;;;23.10;2.83;;;6.10;99.90;;;;;;4701696;30;20060;-91
2022/01/31 00:36:12;;;;;;;21.63;4.32;;;6.10;99.90;;;;;;4716042;30;20065;-92
2022/01/31 00:38:39;;;;;;;10.43;1.83;;;6.10;99.90;;;;;;4715937;30;20053;-91
2022/01/31 00:41:06;;;;;;;12.63;3.28;;;6.20;99.90;;;;;;4716972;30;20061;-92
2022/01/31 00:43:35;;;;;;;17.52;2.67;;;6.20;99.90;;;;;;4716059;30;20056;-91
2022/01/31 00:46:10;;;;;;;13.25;3.00;;;6.20;99.90;;;;;;4716291;30;20496;-92
2022/01/31 00:48:44;;;;;;;17.23;3.40;;;6.20;99.90;;;;;;4701721;30;20060;-92
2022/01/31 00:51:11;;;;;;;25.27;4.57;;;6.20;99.90;;;;;;4716158;30;20088;-91
2022/01/31 00:53:39;;;;;;;19.48;4.80;;;6.20;99.90;;;;;;4717752;30;20057;-92
2022/01/31 00:56:07;;;;;;;22.58;3.63;;;6.20;99.90;;;;;;4704846;30;20607;-92
2022/01/31 00:58:39;;;;;;;16.00;2.42;;;6.20;99.90;;;;;;4705422;30;20060;-91
2022/01/31 01:01:06;;;;;;;11.38;3.50;;;6.20;99.90;;;;;;4705158;30;20061;-92
2022/01/31 01:03:33;;;;;;;20.00;3.47;;;6.20;99.90;;;;;;4704760;30;20509;-91
2022/01/31 01:06:02;;;;;;;23.98;2.78;;;6.30;99.90;;;;;;4719418;30;20422;-91
2022/01/31 01:08:33;;;;;;;12.40;2.28;;;6.30;99.90;;;;;;4705324;30;20517;-91
2022/01/31 01:11:03;;;;;;;20.52;3.40;;;6.30;99.90;;;;;;4719305;30;20578;-92
2022/01/31 01:13:30;;;;;;;20.85;3.60;;;6.30;99.90;;;;;;4719205;30;20456;-92
2022/01/31 01:15:57;;;;;;;13.23;2.80;;;6.40;99.90;;;;;;4721005;30;20053;-92
2022/01/31 01:18:27;;;;;;;11.93;2.80;;;6.40;99.90;;;;;;4706481;30;20060;-92
2022/01/31 01:20:54;;;;;;;13.15;2.65;;;6.40;99.90;;;;;;4706771;30;20057;-92
2022/01/31 01:23:24;;;;;;;20.33;4.13;;;6.40;99.90;;;;;;4719414;30;20049;-93
2022/01/31 01:25:52;;;;;;;12.80;2.53;;;6.40;99.90;;;;;;4718917;30;20053;-92
2022/01/31 01:28:22;;;;;;;17.02;3.00;;;6.40;99.90;;;;;;4718962;30;20057;-93
2022/01/31 01:30:51;;;;;;;14.55;3.63;;;6.40;99.90;;;;;;4719087;30;20045;-92
2022/01/31 01:33:22;;;;;;;12.52;3.15;;;6.40;99.90;;;;;;4719246;30;20148;-92
2022/01/31 01:35:53;;;;;;;12.57;3.05;;;6.40;99.90;;;;;;4704422;30;20076;-92
2022/01/31 01:38:29;;;;;;;12.40;2.75;;;6.40;99.90;;;;;;4704623;30;20057;-92
2022/01/31 01:40:59;;;;;;;13.45;2.00;;;6.50;99.90;;;;;;4718497;30;20453;-92
2022/01/31 01:43:29;;;;;;;20.40;3.42;;;6.40;99.90;;;;;;4718830;30;20052;-93
2022/01/31 01:45:59;;;;;;;16.45;2.58;;;6.40;99.90;;;;;;4704207;30;20053;-92
2022/01/31 01:48:30;;;;;;;12.75;2.90;;;6.50;99.90;;;;;;4718703;30;20051;-94
2022/01/31 01:50:58;;;;;;;13.10;3.10;;;6.50;99.90;;;;;;4718523;30;20079;-93
2022/01/31 01:53:26;;;;;;;30.20;5.05;;;6.50;99.90;;;;;;4704090;30;20525;-92
2022/01/31 01:55:54;;;;;;;14.43;2.65;;;6.50;99.90;;;;;;4718385;30;20127;-93
2022/01/31 01:58:29;;;;;;;15.73;3.10;;;6.50;99.90;;;;;;4704730;30;20096;-91
2022/01/31 02:01:01;;;;;;;15.88;2.72;;;6.50;99.90;;;;;;4718649;30;20065;-93
2022/01/31 02:03:55;;;;;;;18.08;2.75;;;6.50;99.90;;;;;;4716225;30;20058;-92
2022/01/31 02:06:34;;;;;;;20.02;3.35;;;6.50;99.90;;;;;;4718110;30;20417;-92
2022/01/31 02:09:03;;;;;;;11.50;3.58;;;6.50;99.90;;;;;;4717955;30;20078;-91
2022/01/31 02:11:33;;;;;;;21.48;3.25;;;6.50;99.90;;;;;;4704155;30;20073;-91
2022/01/31 02:14:01;;;;;;;13.80;4.03;;;6.50;99.90;;;;;;4717999;30;20059;-92
2022/01/31 02:17:03;;;;;;;14.90;3.08;;;6.50;99.90;;;;;;4717232;30;20143;-93
2022/01/31 02:19:48;;;;;;;14.57;3.55;;;6.50;99.90;;;;;;4704116;30;20057;-93
2022/01/31 02:22:19;;;;;;;12.32;3.05;;;6.50;99.90;;;;;;4704153;30;20490;-93
2022/01/31 02:25:00;;;;;;;23.65;3.63;;;6.50;99.90;;;;;;4718303;30;20511;-92
2022/01/31 02:27:50;;;;;;;18.63;4.22;;;6.50;99.90;;;;;;4717829;30;20092;-94
2022/01/31 02:30:20;;;;;;;15.32;2.15;;;6.50;99.90;;;;;;4717620;30;20501;-91
2022/01/31 02:32:47;;;;;;;12.95;2.60;;;6.50;99.90;;;;;;4717844;30;20057;-92
2022/01/31 02:35:16;;;;;;;14.52;3.13;;;6.50;99.90;;;;;;4703527;30;20629;-92
2022/01/31 02:37:43;;;;;;;15.52;4.03;;;6.50;99.90;;;;;;4717369;30;20402;-91
2022/01/31 02:40:29;;;;;;;14.75;1.90;;;6.50;99.90;;;;;;4717562;30;20059;-92
2022/01/31 02:43:03;;;;;;;16.80;3.40;;;6.50;99.90;;;;;;4718002;30;20045;-93
2022/01/31 02:45:32;;;;;;;14.15;2.08;;;6.50;99.90;;;;;;4719179;30;20107;-92
2022/01/31 02:48:02;;;;;;;15.15;2.00;;;6.50;99.90;;;;;;4704559;30;20416;-93
2022/01/31 02:50:31;;;;;;;7.93;1.40;;;6.50;99.90;;;;;;4719006;30;20045;-92
2022/01/31 02:53:22;;;;;;;11.30;3.33;;;6.50;99.90;;;;;;4717134;30;20526;-91
2022/01/31 02:55:51;;;;;;;16.08;2.88;;;6.50;99.90;;;;;;4703023;30;20476;-94
2022/01/31 02:58:23;;;;;;;8.77;1.73;;;6.50;99.90;;;;;;4717255;30;20132;-92
2022/01/31 03:00:53;;;;;;;10.73;2.03;;;6.50;99.90;;;;;;4716663;30;20061;-93
2022/01/31 03:03:37;;;;;;;15.48;3.13;;;6.50;99.90;;;;;;4716866;30;20052;-93
2022/01/31 03:06:04;;;;;;;19.08;5.47;;;6.50;99.90;;;;;;4702743;30;20052;-92
2022/01/31 03:08:32;;;;;;;22.02;2.85;;;6.50;99.90;;;;;;4716652;30;20154;-92
2022/01/31 03:11:20;;;;;;;14.85;3.97;;;6.50;99.90;;;;;;4716808;30;20061;-93
2022/01/31 03:14:00;;;;;;;20.63;3.75;;;6.50;99.90;;;;;;4716783;30;20057;-92
2022/01/31 03:16:28;;;;;;;13.93;3.30;;;6.50;99.90;;;;;;4716602;30;20453;-92
2022/01/31 03:19:19;;;;;;;15.07;3.40;;;6.50;99.90;;;;;;4717026;30;20542;-91
2022/01/31 03:21:52;;;;;;;16.10;1.50;;;6.50;99.90;;;;;;4702995;30;20049;-92
2022/01/31 03:24:21;;;;;;;11.52;2.58;;;6.50;99.90;;;;;;4716773;30;20049;-91
2022/01/31 03:26:49;;;;;;;16.63;2.50;;;6.50;99.90;;;;;;4716923;30;20049;-93
2022/01/31 03:29:21;;;;;;;14.82;2.03;;;6.40;99.90;;;;;;4717987;30;20041;-92
2022/01/31 03:31:48;;;;;;;21.27;4.57;;;6.50;99.90;;;;;;4717230;30;20049;-92
2022/01/31 03:34:18;;;;;;;16.75;3.55;;;6.40;99.90;;;;;;4716482;30;20055;-92
2022/01/31 03:36:45;;;;;;;14.90;2.60;;;6.40;99.90;;;;;;4724900;30;20067;-92
2022/01/31 03:39:17;;;;;;;21.02;2.70;;;6.50;99.90;;;;;;4716195;30;20065;-91
2022/01/31 03:41:44;;;;;;;12.40;2.55;;;6.40;99.90;;;;;;4716290;30;20053;-92
2022/01/31 03:44:11;;;;;;;14.85;1.95;;;6.40;99.90;;;;;;4716744;30;20052;-91
2022/01/31 03:46:39;;;;;;;29.65;3.97;;;6.50;99.90;;;;;;4716357;30;20049;-91
2022/01/31 03:49:06;;;;;;;15.82;2.60;;;6.50;99.90;;;;;;4716238;30;20055;-92
2022/01/31 03:51:40;;;;;;;19.05;2.90;;;6.50;99.90;;;;;;4702687;30;20572;-90
2022/01/31 03:54:14;;;;;;;20.63;2.78;;;6.40;99.90;;;;;;4718512;30;20057;-93
2022/01/31 03:56:42;;;;;;;18.58;2.85;;;6.50;99.90;;;;;;4716916;30;20057;-91
2022/01/31 03:59:29;;;;;;;25.10;4.22;;;6.40;99.90;;;;;;4717019;30;20051;-92
2022/01/31 04:01:59;;;;;;;11.82;2.85;;;6.50;99.90;;;;;;4716684;30;20057;-91
2022/01/31 04:04:29;;;;;;;11.40;3.15;;;6.40;99.90;;;;;;4716872;30;20065;-93
2022/01/31 04:06:56;;;;;;;14.90;3.80;;;6.30;99.90;;;;;;4721146;30;20595;-91
2022/01/31 04:09:23;;;;;;;14.65;2.53;;;6.30;99.90;;;;;;4717835;30;20056;-91
2022/01/31 04:11:54;;;;;;;10.55;2.50;;;6.30;99.90;;;;;;4717949;30;20049;-91
2022/01/31 04:14:25;;;;;;;15.02;1.77;;;6.30;99.90;;;;;;4724480;30;20140;-91
2022/01/31 04:16:56;;;;;;;19.73;3.85;;;6.30;99.90;;;;;;4716697;30;20057;-92
2022/01/31 04:19:24;;;;;;;9.13;2.80;;;6.30;99.90;;;;;;4717448;30;20353;-91
2022/01/31 04:21:51;;;;;;;11.02;1.60;;;6.30;99.90;;;;;;4717966;30;20056;-92
2022/01/31 04:24:23;;;;;;;17.27;3.15;;;6.30;99.90;;;;;;4718290;30;20084;-93
2022/01/31 04:26:59;;;;;;;11.02;2.53;;;6.30;99.90;;;;;;4717757;30;20053;-92
2022/01/31 04:29:29;;;;;;;16.52;2.83;;;6.20;99.90;;;;;;4719197;30;20061;-92
2022/01/31 04:31:56;;;;;;;14.57;2.10;;;6.20;99.90;;;;;;4722163;30;20148;-92
2022/01/31 04:34:24;;;;;;;11.00;2.33;;;6.30;99.90;;;;;;4719812;30;20065;-93
2022/01/31 04:36:51;;;;;;;10.85;2.53;;;6.20;99.90;;;;;;4721137;30;20485;-93
2022/01/31 04:39:19;;;;;;;14.73;1.70;;;6.20;99.90;;;;;;4719465;30;20053;-92
2022/01/31 04:41:48;;;;;;;7.60;1.73;;;6.20;99.90;;;;;;4719929;30;20053;-93
2022/01/31 04:44:16;;;;;;;16.50;1.70;;;6.20;99.90;;;;;;4719450;30;20389;-91
2022/01/31 04:46:48;;;;;;;10.13;1.83;;;6.20;99.90;;;;;;4720732;30;20140;-93
2022/01/31 04:49:16;;;;;;;7.70;2.33;;;6.20;99.90;;;;;;4719431;30;20467;-93
2022/01/31 04:51:43;;;;;;;16.92;2.88;;;6.20;99.90;;;;;;4719869;30;20099;-92
2022/01/31 04:54:13;;;;;;;20.52;3.67;;;6.20;99.90;;;;;;4720815;30;20057;-93
2022/01/31 04:56:42;;;;;;;10.07;2.33;;;6.20;99.90;;;;;;4719836;30;20063;-92
2022/01/31 04:59:09;;;;;;;18.45;1.98;;;6.20;99.90;;;;;;4719084;30;20063;-92
2022/01/31 05:01:42;;;;;;;11.80;2.08;;;6.20;99.90;;;;;;4719458;30;20570;-92
2022/01/31 05:04:09;;;;;;;18.13;3.15;;;6.20;99.90;;;;;;4719473;30;20049;-91
2022/01/31 05:06:38;;;;;;;12.50;2.60;;;6.30;99.90;;;;;;4719206;30;20063;-92
2022/01/31 05:09:07;;;;;;;19.58;3.25;;;6.20;99.90;;;;;;4718857;30;20057;-91
2022/01/31 05:11:42;;;;;;;23.38;3.80;;;6.20;99.90;;;;;;4718947;30;20057;-93
2022/01/31 05:14:17;;;;;;;12.45;3.15;;;6.20;99.90;;;;;;4720181;30;20057;-93
2022/01/31 05:17:09;;;;;;;16.27;2.40;;;6.20;99.90;;;;;;4720942;30;20053;-93
2022/01/31 05:19:49;;;;;;;25.35;2.58;;;6.20;99.90;;;;;;4720038;30;20111;-92
2022/01/31 05:22:48;;;;;;;15.77;3.10;;;6.20;99.90;;;;;;4719390;30;20068;-92
2022/01/31 05:25:16;;;;;;;6.13;2.75;;;6.20;99.90;;;;;;4720594;30;20063;-89
2022/01/31 05:27:43;;;;;;;17.20;2.08;;;6.20;99.90;;;;;;4720270;30;20570;-91
2022/01/31 05:30:10;;;;;;;22.27;1.60;;;6.20;99.90;;;;;;4720169;30;20436;-91
2022/01/31 05:32:37;;;;;;;11.95;1.88;;;6.20;99.90;;;;;;4719377;30;20061;-90
2022/01/31 05:35:05;;;;;;;6.95;2.55;;;6.20;99.90;;;;;;4719072;30;20068;-91
2022/01/31 05:37:33;;;;;;;24.70;2.97;;;6.20;99.90;;;;;;4718938;30;20057;-91
2022/01/31 05:39:59;;;;;;;14.73;2.33;;;6.20;99.90;;;;;;4718604;30;20123;-91
2022/01/31 05:42:26;;;;;;;18.75;3.05;;;6.20;99.90;;;;;;4718860;30;20060;-91
2022/01/31 05:44:57;;;;;;;6.93;1.63;;;6.20;99.90;;;;;;4718928;30;20141;-94
2022/01/31 21:33:11;;;;;;;9.13;2.58;;;5.60;99.90;;;;;;1529317;24;20549;-91
2022/01/31 21:36:09;;;;;;;14.52;1.75;;;5.60;99.90;;;;;;4725478;30;20407;-94
2022/01/31 21:39:30;;;;;;;16.52;1.33;;;5.50;99.90;;;;;;4738085;30;20048;-94
2022/01/31 21:43:02;;;;;;;17.38;1.80;;;5.60;99.90;;;;;;4743877;30;20060;-96
2022/01/31 21:45:52;;;;;;;10.95;1.77;;;5.50;99.90;;;;;;4742405;30;20052;-95
2022/01/31 21:57:13;;;;;;;9.48;1.35;;;5.50;99.90;;;;;;4740165;30;20067;-93
